Time;durP1;ratioP1;P1;durP2;ratioP2;P2;SDS_P1;SDS_P2;PMS_P1;PMS_P2;Temp;Humidity;BMP_temperature;BMP_pressure;BME280_temperature;BME280_humidity;BME280_pressure;Samples;Min_cycle;Max_cycle;Signal;HPM_P1;HPM_P2
2021/01/31 00:00:26;;;;;;;0.50;0.50;;;;;;;;;;4982309;28;20631;-63
2021/01/31 00:02:52;;;;;;;1.10;1.10;;;;;;;;;;4979312;28;20254;-63
2021/01/31 00:05:19;;;;;;;1.50;1.40;;;;;;;;;;4979938;28;20293;-62
2021/01/31 00:07:45;;;;;;;0.68;0.68;;;;;;;;;;4982423;28;20623;-63
2021/01/31 00:10:12;;;;;;;0.40;0.40;;;;;;;;;;4981530;28;20214;-63
2021/01/31 00:12:38;;;;;;;1.30;1.30;;;;;;;;;;4983279;28;20807;-63
2021/01/31 00:15:07;;;;;;;1.40;1.40;;;;;;;;;;4982913;28;20308;-63
2021/01/31 00:17:33;;;;;;;1.35;1.25;;;;;;;;;;4982331;28;20926;-62
2021/01/31 00:19:59;;;;;;;0.93;0.93;;;;;;;;;;4980743;28;20215;-62
2021/01/31 00:22:25;;;;;;;0.70;0.70;;;;;;;;;;4980405;28;20181;-62
2021/01/31 00:24:54;;;;;;;1.45;1.35;;;;;;;;;;4982907;28;20199;-63
2021/01/31 00:27:24;;;;;;;0.73;0.73;;;;;;;;;;4982037;28;20290;-62
2021/01/31 00:29:51;;;;;;;0.70;0.70;;;;;;;;;;4980764;28;20547;-64
2021/01/31 00:32:21;;;;;;;1.48;1.48;;;;;;;;;;4982150;28;20168;-63
2021/01/31 00:34:47;;;;;;;1.30;1.23;;;;;;;;;;4985268;28;20653;-64
2021/01/31 00:37:14;;;;;;;0.73;0.73;;;;;;;;;;4984834;28;20176;-64
2021/01/31 00:39:40;;;;;;;0.93;0.93;;;;;;;;;;4985591;28;20183;-64
2021/01/31 00:42:06;;;;;;;0.57;0.57;;;;;;;;;;4985462;28;20215;-63
2021/01/31 00:44:32;;;;;;;1.10;1.10;;;;;;;;;;4984658;28;20204;-62
2021/01/31 00:46:58;;;;;;;1.13;1.13;;;;;;;;;;4985594;28;20474;-63
2021/01/31 00:49:24;;;;;;;0.60;0.60;;;;;;;;;;4985806;28;20173;-63
2021/01/31 00:51:50;;;;;;;1.03;1.03;;;;;;;;;;4984398;28;20226;-63
2021/01/31 00:54:16;;;;;;;1.10;1.10;;;;;;;;;;5008836;28;20516;-63
2021/01/31 00:56:42;;;;;;;1.60;1.50;;;;;;;;;;4983752;28;20177;-62
2021/01/31 00:59:08;;;;;;;0.75;0.75;;;;;;;;;;4975378;28;20207;-55
2021/01/31 01:01:34;;;;;;;1.30;1.23;;;;;;;;;;4975960;28;20673;-60
2021/01/31 01:04:00;;;;;;;1.47;1.27;;;;;;;;;;4975758;28;20414;-60
2021/01/31 01:06:26;;;;;;;2.73;2.53;;;;;;;;;;4975406;28;20469;-60
2021/01/31 01:08:52;;;;;;;1.50;1.47;;;;;;;;;;4975646;28;20411;-60
2021/01/31 01:11:18;;;;;;;0.60;0.60;;;;;;;;;;4975809;28;20494;-62
2021/01/31 01:13:44;;;;;;;0.90;0.90;;;;;;;;;;4975878;28;20906;-62
2021/01/31 01:16:10;;;;;;;1.25;1.25;;;;;;;;;;4975678;28;20478;-62
2021/01/31 01:18:38;;;;;;;1.33;1.30;;;;;;;;;;4975569;28;20185;-62
2021/01/31 01:21:04;;;;;;;1.35;1.23;;;;;;;;;;4975482;28;20226;-62
2021/01/31 01:23:30;;;;;;;0.60;0.60;;;;;;;;;;4975661;28;20177;-62
2021/01/31 01:25:56;;;;;;;0.77;0.77;;;;;;;;;;4975477;28;20207;-62
2021/01/31 01:28:22;;;;;;;0.97;0.97;;;;;;;;;;4975502;28;20416;-62
2021/01/31 01:30:49;;;;;;;0.98;0.98;;;;;;;;;;4975303;28;20404;-63
2021/01/31 01:33:15;;;;;;;0.95;0.95;;;;;;;;;;4975322;28;20536;-63
2021/01/31 01:35:41;;;;;;;1.10;1.10;;;;;;;;;;5009593;23;20228;-63
2021/01/31 01:38:07;;;;;;;1.65;1.55;;;;;;;;;;5014323;28;20404;-63
2021/01/31 01:40:35;;;;;;;0.73;0.73;;;;;;;;;;5013638;28;20204;-64
2021/01/31 01:43:01;;;;;;;1.00;1.00;;;;;;;;;;5014273;28;20178;-62
2021/01/31 01:45:27;;;;;;;0.93;0.93;;;;;;;;;;5013440;28;20213;-62
2021/01/31 01:47:55;;;;;;;1.35;1.25;;;;;;;;;;5013564;28;20178;-63
2021/01/31 01:50:38;;;;;;;0.80;0.80;;;;;;;;;;5000483;28;20182;-63
2021/01/31 01:53:04;;;;;;;1.48;1.48;;;;;;;;;;4996792;28;20652;-65
2021/01/31 01:55:32;;;;;;;0.80;0.80;;;;;;;;;;5013870;28;20574;-63
2021/01/31 01:58:06;;;;;;;1.92;1.88;;;;;;;;;;5014015;28;20170;-65
2021/01/31 02:00:32;;;;;;;0.60;0.60;;;;;;;;;;5013576;28;20236;-65
2021/01/31 02:03:01;;;;;;;1.13;1.13;;;;;;;;;;5013424;28;20189;-65
2021/01/31 02:05:28;;;;;;;1.70;1.63;;;;;;;;;;5013372;28;20680;-65
2021/01/31 02:07:54;;;;;;;1.83;1.73;;;;;;;;;;5013712;28;20181;-64
2021/01/31 02:10:22;;;;;;;1.35;1.35;;;;;;;;;;5013271;28;20578;-65
2021/01/31 02:12:49;;;;;;;2.15;2.15;;;;;;;;;;5003603;28;20578;-65
2021/01/31 02:15:16;;;;;;;0.70;0.70;;;;;;;;;;5013805;28;20222;-65
2021/01/31 02:17:42;;;;;;;0.80;0.80;;;;;;;;;;5012319;28;20603;-64
2021/01/31 02:20:28;;;;;;;2.13;2.03;;;;;;;;;;5013131;28;20193;-64
2021/01/31 02:23:05;;;;;;;1.48;1.48;;;;;;;;;;4992487;28;20920;-64
2021/01/31 02:25:43;;;;;;;2.45;2.35;;;;;;;;;;5013273;28;20209;-65
2021/01/31 02:28:27;;;;;;;0.80;0.80;;;;;;;;;;5013252;28;20180;-63
2021/01/31 02:31:05;;;;;;;0.60;0.60;;;;;;;;;;5013233;28;20633;-62
2021/01/31 02:33:40;;;;;;;1.25;1.25;;;;;;;;;;5013464;28;20599;-65
2021/01/31 02:36:13;;;;;;;3.05;1.45;;;;;;;;;;5013119;28;20720;-64
2021/01/31 02:38:48;;;;;;;0.50;0.50;;;;;;;;;;5012723;28;20677;-64
2021/01/31 02:41:19;;;;;;;0.90;0.90;;;;;;;;;;5013191;28;20208;-64
2021/01/31 02:43:47;;;;;;;1.98;1.98;;;;;;;;;;5012899;28;20181;-64
2021/01/31 02:46:34;;;;;;;1.40;1.35;;;;;;;;;;5012789;28;20255;-65
2021/01/31 02:49:04;;;;;;;3.10;2.90;;;;;;;;;;5012342;28;20174;-64
2021/01/31 02:51:50;;;;;;;3.50;1.70;;;;;;;;;;5012599;28;20784;-64
2021/01/31 02:54:19;;;;;;;0.70;0.70;;;;;;;;;;5005595;28;20196;-63
2021/01/31 02:56:51;;;;;;;2.80;2.63;;;;;;;;;;5012213;28;20189;-64
2021/01/31 02:59:20;;;;;;;2.05;1.95;;;;;;;;;;5012142;28;20650;-64
2021/01/31 03:01:52;;;;;;;0.85;0.85;;;;;;;;;;5012589;28;20208;-64
2021/01/31 03:04:31;;;;;;;2.72;2.60;;;;;;;;;;5012575;28;20182;-63
2021/01/31 03:07:01;;;;;;;1.27;1.17;;;;;;;;;;5006730;28;20208;-64
2021/01/31 03:09:33;;;;;;;1.20;1.20;;;;;;;;;;5012408;28;20189;-65
2021/01/31 03:12:03;;;;;;;1.33;1.30;;;;;;;;;;5012671;28;20595;-64
2021/01/31 03:14:37;;;;;;;1.50;1.40;;;;;;;;;;5012527;28;20182;-65
2021/01/31 03:17:08;;;;;;;0.93;0.93;;;;;;;;;;5012039;28;20188;-65
2021/01/31 03:19:37;;;;;;;1.95;1.05;;;;;;;;;;5012422;28;20538;-65
2021/01/31 03:22:07;;;;;;;1.77;1.67;;;;;;;;;;5012271;28;20647;-65
2021/01/31 03:24:54;;;;;;;2.42;2.22;;;;;;;;;;5012259;28;20205;-65
2021/01/31 03:27:23;;;;;;;1.45;1.38;;;;;;;;;;5012185;28;20294;-64
2021/01/31 03:29:49;;;;;;;0.90;0.90;;;;;;;;;;5011996;28;20185;-65
2021/01/31 03:32:18;;;;;;;0.70;0.70;;;;;;;;;;5011685;28;20201;-65
2021/01/31 03:34:47;;;;;;;0.82;0.82;;;;;;;;;;5012300;28;20193;-65
2021/01/31 03:37:13;;;;;;;1.45;1.35;;;;;;;;;;5011957;28;20264;-65
2021/01/31 03:39:40;;;;;;;4.07;1.75;;;;;;;;;;5011814;28;20186;-65
2021/01/31 03:42:06;;;;;;;1.00;1.00;;;;;;;;;;5012053;28;20213;-65
2021/01/31 03:44:33;;;;;;;3.13;2.92;;;;;;;;;;5012183;28;20190;-65
2021/01/31 03:47:05;;;;;;;0.70;0.70;;;;;;;;;;5011806;28;20205;-65
2021/01/31 03:49:35;;;;;;;0.60;0.60;;;;;;;;;;5011839;28;20612;-65
2021/01/31 03:52:01;;;;;;;2.45;2.25;;;;;;;;;;5012054;28;20212;-64
2021/01/31 03:54:27;;;;;;;4.75;2.67;;;;;;;;;;5012091;28;20173;-65
2021/01/31 03:56:56;;;;;;;1.15;0.63;;;;;;;;;;5011991;28;20205;-65
2021/01/31 03:59:42;;;;;;;2.10;2.00;;;;;;;;;;5011693;28;20205;-65
2021/01/31 04:02:09;;;;;;;1.25;1.25;;;;;;;;;;5012356;28;20197;-65
2021/01/31 04:04:35;;;;;;;1.90;1.80;;;;;;;;;;5011672;28;20581;-65
2021/01/31 04:07:04;;;;;;;0.93;0.93;;;;;;;;;;5011644;28;20292;-65
2021/01/31 04:09:32;;;;;;;1.20;1.20;;;;;;;;;;5015874;28;20420;-64
2021/01/31 04:12:03;;;;;;;1.15;1.15;;;;;;;;;;5018175;28;20170;-64
2021/01/31 04:14:49;;;;;;;1.23;1.00;;;;;;;;;;5018323;28;20205;-64
2021/01/31 04:17:15;;;;;;;1.58;1.48;;;;;;;;;;5018138;28;20255;-64
2021/01/31 04:19:41;;;;;;;0.95;0.95;;;;;;;;;;5017919;28;20185;-64
2021/01/31 04:22:07;;;;;;;0.80;0.80;;;;;;;;;;5018156;28;20200;-64
2021/01/31 04:24:33;;;;;;;2.17;2.08;;;;;;;;;;5017770;28;20428;-64
2021/01/31 04:26:59;;;;;;;3.97;1.50;;;;;;;;;;5017953;28;20216;-62
2021/01/31 04:29:27;;;;;;;2.63;2.53;;;;;;;;;;5017744;28;20963;-64
2021/01/31 04:31:53;;;;;;;2.78;1.88;;;;;;;;;;5018359;28;20176;-64
2021/01/31 04:34:19;;;;;;;2.03;1.92;;;;;;;;;;5016567;28;20185;-64
2021/01/31 04:36:45;;;;;;;0.80;0.80;;;;;;;;;;5017672;28;20185;-64
2021/01/31 04:39:11;;;;;;;1.70;1.70;;;;;;;;;;5017862;28;20418;-63
2021/01/31 04:41:38;;;;;;;5.75;3.38;;;;;;;;;;5018222;28;20576;-64
2021/01/31 04:44:05;;;;;;;1.15;1.15;;;;;;;;;;5018437;28;20296;-64
2021/01/31 04:46:40;;;;;;;0.93;0.93;;;;;;;;;;5017956;28;20239;-63
2021/01/31 04:49:29;;;;;;;1.77;1.70;;;;;;;;;;5018174;28;20180;-64
2021/01/31 04:52:02;;;;;;;1.38;1.38;;;;;;;;;;5014239;28;20208;-63
2021/01/31 04:54:40;;;;;;;3.50;1.70;;;;;;;;;;5017921;28;20556;-63
2021/01/31 04:57:27;;;;;;;1.20;1.10;;;;;;;;;;5018170;28;20530;-62
2021/01/31 04:59:53;;;;;;;0.77;0.77;;;;;;;;;;5017641;28;20217;-65
2021/01/31 05:02:24;;;;;;;1.00;1.00;;;;;;;;;;5018049;28;20182;-64
2021/01/31 05:04:52;;;;;;;1.13;1.02;;;;;;;;;;5017684;28;20237;-64
2021/01/31 05:07:20;;;;;;;2.83;2.65;;;;;;;;;;5017674;28;20213;-64
2021/01/31 05:09:46;;;;;;;1.95;1.50;;;;;;;;;;5017077;28;20206;-65
2021/01/31 05:12:20;;;;;;;1.92;1.83;;;;;;;;;;5017914;28;20165;-65
2021/01/31 05:15:00;;;;;;;3.25;2.95;;;;;;;;;;5017841;28;20521;-65
2021/01/31 05:17:26;;;;;;;1.10;1.10;;;;;;;;;;5017626;28;20177;-64
2021/01/31 05:19:52;;;;;;;1.17;1.17;;;;;;;;;;5016069;28;20177;-65
2021/01/31 05:22:21;;;;;;;1.25;1.25;;;;;;;;;;5014453;28;20192;-63
2021/01/31 05:24:47;;;;;;;1.98;1.88;;;;;;;;;;5014569;28;20315;-64
2021/01/31 05:27:17;;;;;;;2.92;2.83;;;;;;;;;;5014399;28;20212;-64
2021/01/31 05:29:42;;;;;;;3.58;3.38;;;;;;;;;;5014444;28;20169;-64
2021/01/31 05:32:10;;;;;;;2.30;2.20;;;;;;;;;;5014208;28;20188;-65
2021/01/31 05:34:39;;;;;;;1.88;1.77;;;;;;;;;;5014551;28;20441;-63
2021/01/31 05:37:08;;;;;;;1.45;1.35;;;;;;;;;;5013928;28;20205;-63
2021/01/31 05:39:47;;;;;;;3.00;2.80;;;;;;;;;;5014290;28;20209;-65
2021/01/31 05:42:14;;;;;;;1.88;1.77;;;;;;;;;;5014082;28;20644;-64
2021/01/31 05:44:41;;;;;;;1.27;1.23;;;;;;;;;;5014086;28;20233;-65
2021/01/31 05:47:18;;;;;;;1.92;1.83;;;;;;;;;;5014430;28;20248;-65
2021/01/31 05:49:48;;;;;;;1.67;1.67;;;;;;;;;;5014065;28;20174;-65
2021/01/31 05:52:23;;;;;;;0.95;0.95;;;;;;;;;;5014012;28;20230;-65
2021/01/31 05:54:51;;;;;;;1.35;1.35;;;;;;;;;;5015448;28;20201;-65
2021/01/31 05:57:36;;;;;;;1.33;1.30;;;;;;;;;;5014282;28;20185;-65
2021/01/31 06:00:22;;;;;;;1.75;1.75;;;;;;;;;;5013339;28;20231;-65
2021/01/31 06:02:58;;;;;;;1.52;1.25;;;;;;;;;;5013441;28;20204;-65
2021/01/31 06:05:24;;;;;;;2.03;1.88;;;;;;;;;;5013743;28;20193;-65
2021/01/31 06:08:01;;;;;;;0.73;0.73;;;;;;;;;;5013652;28;20205;-65
2021/01/31 06:10:27;;;;;;;2.45;2.33;;;;;;;;;;5013321;28;20173;-65
2021/01/31 06:13:01;;;;;;;2.35;2.17;;;;;;;;;;5013629;28;20215;-65
2021/01/31 06:15:35;;;;;;;1.58;1.48;;;;;;;;;;5013669;28;20192;-65
2021/01/31 06:18:06;;;;;;;0.75;0.75;;;;;;;;;;5013892;28;20189;-65
2021/01/31 06:20:33;;;;;;;0.93;0.93;;;;;;;;;;5013414;28;20680;-65
2021/01/31 06:22:59;;;;;;;0.50;0.50;;;;;;;;;;5013365;28;20201;-65
2021/01/31 06:25:25;;;;;;;1.70;1.63;;;;;;;;;;5005553;28;20694;-65
2021/01/31 06:27:54;;;;;;;2.70;2.50;;;;;;;;;;4993841;28;20209;-65
2021/01/31 06:30:31;;;;;;;1.75;1.73;;;;;;;;;;4996331;28;20456;-65
2021/01/31 06:32:58;;;;;;;1.33;1.30;;;;;;;;;;5013292;28;20439;-66
2021/01/31 06:35:25;;;;;;;0.65;0.65;;;;;;;;;;5013157;28;20241;-65
2021/01/31 06:37:57;;;;;;;1.20;1.20;;;;;;;;;;5012865;28;20183;-65
2021/01/31 06:40:43;;;;;;;1.70;1.67;;;;;;;;;;5012781;28;20205;-65
2021/01/31 06:43:14;;;;;;;1.55;1.55;;;;;;;;;;5012557;28;20657;-64
2021/01/31 06:45:48;;;;;;;1.17;1.08;;;;;;;;;;5012628;28;20205;-65
2021/01/31 06:48:22;;;;;;;2.00;1.90;;;;;;;;;;5012784;28;20221;-65
2021/01/31 06:50:48;;;;;;;1.77;1.73;;;;;;;;;;5011695;28;20268;-65
2021/01/31 06:53:20;;;;;;;2.33;1.50;;;;;;;;;;5012265;28;20181;-65
2021/01/31 06:55:55;;;;;;;1.00;0.98;;;;;;;;;;5011792;28;20929;-65
2021/01/31 06:58:27;;;;;;;4.10;1.98;;;;;;;;;;5008178;28;20176;-65
2021/01/31 07:01:06;;;;;;;2.17;2.05;;;;;;;;;;5012100;28;20181;-65
2021/01/31 07:03:37;;;;;;;2.28;2.17;;;;;;;;;;5012652;28;20173;-65
2021/01/31 07:06:03;;;;;;;2.13;1.95;;;;;;;;;;5012245;28;20616;-65
2021/01/31 07:08:29;;;;;;;0.90;0.90;;;;;;;;;;5012149;28;20177;-65
2021/01/31 07:10:55;;;;;;;1.60;1.50;;;;;;;;;;5011491;28;20915;-65
2021/01/31 07:13:27;;;;;;;0.83;0.83;;;;;;;;;;5012372;28;20455;-65
2021/01/31 07:15:56;;;;;;;1.25;1.25;;;;;;;;;;5011718;28;20476;-65
2021/01/31 07:18:23;;;;;;;1.13;1.13;;;;;;;;;;5012106;28;20260;-65
2021/01/31 07:20:51;;;;;;;0.70;0.70;;;;;;;;;;5011808;28;20205;-65
2021/01/31 07:23:37;;;;;;;1.35;1.35;;;;;;;;;;5012223;28;20232;-65
2021/01/31 07:26:15;;;;;;;2.05;1.95;;;;;;;;;;5011429;28;20275;-65
2021/01/31 07:28:42;;;;;;;1.60;1.50;;;;;;;;;;5012262;28;20177;-65
2021/01/31 07:31:13;;;;;;;0.70;0.70;;;;;;;;;;5011566;28;20641;-65
2021/01/31 07:34:00;;;;;;;1.52;1.30;;;;;;;;;;5011507;28;20210;-64
2021/01/31 07:36:30;;;;;;;2.10;1.08;;;;;;;;;;4996299;28;20689;-65
2021/01/31 07:38:56;;;;;;;1.15;1.15;;;;;;;;;;5002883;28;20185;-65
2021/01/31 07:41:23;;;;;;;3.37;3.07;;;;;;;;;;4992455;28;20174;-65
2021/01/31 07:43:53;;;;;;;1.05;1.05;;;;;;;;;;5005670;28;20412;-65
2021/01/31 07:46:19;;;;;;;2.53;2.35;;;;;;;;;;5011659;28;20244;-65
2021/01/31 07:48:45;;;;;;;0.88;0.88;;;;;;;;;;5011341;28;20256;-65
2021/01/31 07:51:14;;;;;;;1.77;1.67;;;;;;;;;;5010055;28;20216;-65
2021/01/31 07:53:43;;;;;;;1.10;1.08;;;;;;;;;;5011245;28;20181;-65
2021/01/31 07:56:27;;;;;;;0.88;0.88;;;;;;;;;;5010916;28;20197;-65
2021/01/31 07:58:55;;;;;;;1.30;1.30;;;;;;;;;;5009888;28;20217;-65
2021/01/31 08:01:39;;;;;;;2.35;1.88;;;;;;;;;;5010985;28;20236;-65
2021/01/31 08:04:17;;;;;;;2.10;1.88;;;;;;;;;;5011109;28;20185;-65
2021/01/31 08:06:43;;;;;;;2.60;2.53;;;;;;;;;;5010936;28;20288;-65
2021/01/31 08:09:10;;;;;;;3.80;1.90;;;;;;;;;;5010495;28;20352;-65
2021/01/31 08:11:39;;;;;;;1.73;1.65;;;;;;;;;;5010693;28;20444;-64
2021/01/31 08:14:08;;;;;;;1.00;1.00;;;;;;;;;;5010651;28;20201;-64
2021/01/31 08:16:41;;;;;;;1.15;1.05;;;;;;;;;;5011378;28;20226;-64
2021/01/31 08:19:12;;;;;;;1.83;1.30;;;;;;;;;;5011252;28;20397;-64
2021/01/31 08:21:55;;;;;;;1.00;1.00;;;;;;;;;;5010428;28;20701;-64
2021/01/31 08:24:39;;;;;;;2.65;2.45;;;;;;;;;;5011323;28;20184;-64
2021/01/31 08:27:05;;;;;;;0.85;0.85;;;;;;;;;;5011080;28;20209;-64
2021/01/31 08:29:32;;;;;;;1.98;1.65;;;;;;;;;;5008969;28;20573;-65
2021/01/31 08:32:03;;;;;;;3.17;3.03;;;;;;;;;;5018326;28;20621;-65
2021/01/31 08:34:29;;;;;;;1.42;1.42;;;;;;;;;;5010789;28;20671;-64
2021/01/31 08:37:15;;;;;;;1.67;1.58;;;;;;;;;;4995202;28;20210;-64
2021/01/31 08:39:41;;;;;;;0.82;0.82;;;;;;;;;;5000304;28;20540;-65
2021/01/31 08:42:10;;;;;;;0.90;0.90;;;;;;;;;;5030783;28;20507;-64
2021/01/31 08:44:56;;;;;;;2.65;2.45;;;;;;;;;;5030044;28;20239;-64
2021/01/31 08:47:22;;;;;;;3.05;1.77;;;;;;;;;;5022514;28;20205;-64
2021/01/31 08:49:59;;;;;;;2.45;2.30;;;;;;;;;;5010678;28;20174;-65
2021/01/31 08:52:25;;;;;;;1.55;1.45;;;;;;;;;;5009638;28;20174;-65
2021/01/31 08:55:01;;;;;;;0.85;0.85;;;;;;;;;;5010504;28;20193;-65
2021/01/31 08:57:27;;;;;;;1.20;1.20;;;;;;;;;;5014589;28;20178;-65
2021/01/31 08:59:53;;;;;;;1.10;1.00;;;;;;;;;;5014748;28;20285;-65
2021/01/31 09:02:25;;;;;;;2.05;1.98;;;;;;;;;;5015345;28;20178;-64
2021/01/31 09:04:51;;;;;;;1.02;1.02;;;;;;;;;;5015235;28;20561;-65
2021/01/31 09:07:21;;;;;;;0.70;0.70;;;;;;;;;;5014458;28;20198;-65
2021/01/31 09:09:52;;;;;;;1.58;0.80;;;;;;;;;;5013714;28;20501;-65
2021/01/31 09:12:19;;;;;;;1.83;1.73;;;;;;;;;;5013614;28;20236;-64
2021/01/31 09:14:46;;;;;;;1.27;1.23;;;;;;;;;;5014837;28;20236;-65
2021/01/31 09:17:20;;;;;;;2.03;1.92;;;;;;;;;;5014219;28;20233;-64
2021/01/31 09:19:46;;;;;;;0.60;0.60;;;;;;;;;;5014843;28;20692;-64
2021/01/31 09:22:22;;;;;;;1.85;1.77;;;;;;;;;;5013903;28;20177;-65
2021/01/31 09:24:51;;;;;;;1.60;1.60;;;;;;;;;;5014168;28;20201;-64
2021/01/31 09:27:19;;;;;;;1.60;1.45;;;;;;;;;;5013295;28;20239;-64
2021/01/31 09:29:46;;;;;;;3.47;2.95;;;;;;;;;;5013809;28;20685;-64
2021/01/31 09:32:21;;;;;;;1.13;1.13;;;;;;;;;;5014055;28;20198;-64
2021/01/31 09:34:51;;;;;;;0.60;0.60;;;;;;;;;;5013203;28;20340;-64
2021/01/31 09:37:23;;;;;;;1.35;1.35;;;;;;;;;;5013750;28;20214;-65
2021/01/31 09:39:50;;;;;;;1.00;0.90;;;;;;;;;;5012094;28;20205;-64
2021/01/31 09:42:16;;;;;;;1.13;1.13;;;;;;;;;;5012847;28;20643;-65
2021/01/31 09:44:47;;;;;;;1.60;1.50;;;;;;;;;;5013233;28;20199;-64
2021/01/31 09:47:13;;;;;;;0.85;0.85;;;;;;;;;;5012492;28;20203;-65
2021/01/31 09:49:39;;;;;;;2.65;2.55;;;;;;;;;;5013144;28;20217;-65
2021/01/31 09:52:10;;;;;;;1.77;1.73;;;;;;;;;;5011773;28;20175;-64
2021/01/31 09:54:36;;;;;;;1.17;1.17;;;;;;;;;;5013452;28;20211;-64
2021/01/31 09:57:21;;;;;;;1.40;1.15;;;;;;;;;;5013197;28;20179;-64
2021/01/31 09:59:47;;;;;;;1.13;1.13;;;;;;;;;;5013163;28;20701;-64
2021/01/31 10:02:13;;;;;;;1.77;1.67;;;;;;;;;;5013173;28;20183;-65
2021/01/31 10:04:39;;;;;;;1.17;1.07;;;;;;;;;;5013647;28;20635;-65
2021/01/31 10:07:07;;;;;;;1.27;1.27;;;;;;;;;;5012955;28;20450;-65
2021/01/31 10:09:35;;;;;;;1.02;1.02;;;;;;;;;;5013118;28;20171;-65
2021/01/31 10:12:13;;;;;;;4.10;2.30;;;;;;;;;;5012729;28;20182;-65
2021/01/31 10:14:42;;;;;;;1.75;1.75;;;;;;;;;;5013357;28;20175;-65
2021/01/31 10:17:16;;;;;;;1.48;1.35;;;;;;;;;;5013509;28;20178;-64
2021/01/31 10:19:42;;;;;;;3.63;2.70;;;;;;;;;;5012912;28;20542;-64
2021/01/31 10:22:12;;;;;;;2.05;1.95;;;;;;;;;;5011571;28;20198;-64
2021/01/31 10:24:38;;;;;;;1.25;1.25;;;;;;;;;;5012815;28;20600;-64
2021/01/31 10:27:04;;;;;;;1.05;0.90;;;;;;;;;;5013018;28;20205;-65
2021/01/31 10:29:31;;;;;;;1.42;1.42;;;;;;;;;;5012824;28;20171;-64
2021/01/31 10:32:17;;;;;;;1.45;1.45;;;;;;;;;;5013170;28;20180;-64
2021/01/31 10:34:43;;;;;;;1.00;1.00;;;;;;;;;;5012101;28;20228;-64
2021/01/31 10:37:18;;;;;;;2.28;2.20;;;;;;;;;;5012928;28;20209;-65
2021/01/31 10:39:46;;;;;;;1.88;1.77;;;;;;;;;;5013036;28;20191;-65
2021/01/31 10:42:12;;;;;;;0.95;0.95;;;;;;;;;;5013351;28;20173;-64
2021/01/31 10:44:38;;;;;;;1.35;1.35;;;;;;;;;;5013030;28;20546;-65
2021/01/31 10:47:04;;;;;;;1.42;1.40;;;;;;;;;;5011945;28;20204;-65
2021/01/31 10:49:30;;;;;;;2.30;2.20;;;;;;;;;;5012843;28;20175;-64
2021/01/31 10:51:56;;;;;;;4.00;1.75;;;;;;;;;;5012646;28;20410;-65
2021/01/31 10:54:23;;;;;;;2.50;2.30;;;;;;;;;;5012635;28;20175;-64
2021/01/31 10:56:50;;;;;;;3.92;2.60;;;;;;;;;;5012250;28;20183;-65
2021/01/31 10:59:16;;;;;;;3.17;2.97;;;;;;;;;;5012228;28;20186;-65
2021/01/31 11:01:43;;;;;;;1.65;1.65;;;;;;;;;;5011226;28;20183;-64
2021/01/31 11:04:09;;;;;;;1.30;1.30;;;;;;;;;;5012551;28;20670;-65
2021/01/31 11:06:35;;;;;;;2.35;2.15;;;;;;;;;;5012240;28;20203;-65
2021/01/31 11:09:01;;;;;;;1.73;1.63;;;;;;;;;;5011821;28;20221;-65
2021/01/31 11:11:27;;;;;;;1.10;1.10;;;;;;;;;;5012306;28;20232;-64
2021/01/31 11:13:53;;;;;;;1.30;1.30;;;;;;;;;;5011178;28;20172;-64
2021/01/31 11:16:19;;;;;;;1.48;1.38;;;;;;;;;;5012278;28;20613;-64
2021/01/31 11:18:46;;;;;;;1.88;1.77;;;;;;;;;;5011174;28;20187;-65
2021/01/31 11:21:16;;;;;;;2.95;2.65;;;;;;;;;;5010826;28;20202;-65
2021/01/31 11:23:42;;;;;;;1.50;1.40;;;;;;;;;;5011639;28;20240;-65
2021/01/31 11:26:07;;;;;;;2.50;2.40;;;;;;;;;;5011773;28;20243;-65
2021/01/31 11:28:33;;;;;;;0.80;0.80;;;;;;;;;;5011900;28;20270;-64
2021/01/31 11:30:59;;;;;;;2.60;2.40;;;;;;;;;;5011058;28;20410;-65
2021/01/31 11:33:25;;;;;;;3.53;3.33;;;;;;;;;;5011819;28;20775;-65
2021/01/31 11:35:51;;;;;;;1.48;0.85;;;;;;;;;;5011275;28;20596;-65
2021/01/31 11:38:17;;;;;;;3.33;2.93;;;;;;;;;;5011651;28;20560;-63
2021/01/31 11:40:43;;;;;;;2.70;1.83;;;;;;;;;;5011237;28;20451;-63
2021/01/31 11:43:09;;;;;;;2.50;2.30;;;;;;;;;;5011112;28;20165;-64
2021/01/31 11:45:35;;;;;;;1.03;1.00;;;;;;;;;;5011501;28;20196;-64
2021/01/31 11:48:01;;;;;;;3.45;2.72;;;;;;;;;;5011066;28;20548;-65
2021/01/31 11:50:27;;;;;;;2.88;2.00;;;;;;;;;;5011087;28;20207;-65
2021/01/31 11:52:54;;;;;;;1.13;1.13;;;;;;;;;;5011089;28;20602;-65
2021/01/31 11:55:20;;;;;;;2.20;2.10;;;;;;;;;;5011324;28;20301;-65
2021/01/31 11:57:46;;;;;;;5.65;1.50;;;;;;;;;;5010382;28;20211;-65
2021/01/31 12:00:14;;;;;;;2.15;1.45;;;;;;;;;;5009790;28;20186;-65
2021/01/31 12:02:40;;;;;;;2.65;2.40;;;;;;;;;;5011304;28;20174;-65
2021/01/31 12:05:09;;;;;;;2.35;2.15;;;;;;;;;;5011025;28;20221;-65
2021/01/31 12:07:35;;;;;;;5.50;2.03;;;;;;;;;;5011382;28;20512;-65
2021/01/31 12:10:01;;;;;;;2.33;2.17;;;;;;;;;;5010111;28;20175;-65
2021/01/31 12:12:27;;;;;;;1.17;1.08;;;;;;;;;;5011479;28;20419;-64
2021/01/31 12:14:53;;;;;;;1.80;1.70;;;;;;;;;;5011159;28;20280;-64
2021/01/31 12:17:19;;;;;;;1.63;1.53;;;;;;;;;;5011693;28;20179;-65
2021/01/31 12:19:45;;;;;;;1.25;1.15;;;;;;;;;;5011461;28;20461;-65
2021/01/31 12:22:11;;;;;;;0.95;0.95;;;;;;;;;;5011942;28;20169;-64
2021/01/31 12:24:37;;;;;;;2.42;2.33;;;;;;;;;;5011250;28;20265;-65
2021/01/31 12:27:03;;;;;;;3.37;1.63;;;;;;;;;;5012097;28;20243;-64
2021/01/31 12:29:29;;;;;;;2.28;2.20;;;;;;;;;;5012037;28;20454;-64
2021/01/31 12:31:55;;;;;;;1.80;1.73;;;;;;;;;;5015600;28;20206;-63
2021/01/31 12:34:21;;;;;;;1.02;1.02;;;;;;;;;;5015272;28;20403;-63
2021/01/31 12:36:47;;;;;;;1.85;1.75;;;;;;;;;;5014647;28;20203;-64
2021/01/31 12:39:14;;;;;;;1.38;1.38;;;;;;;;;;5016507;28;20212;-64
2021/01/31 12:41:40;;;;;;;1.02;1.02;;;;;;;;;;5015823;28;20176;-64
2021/01/31 12:44:06;;;;;;;1.83;1.73;;;;;;;;;;5015399;28;20236;-63
2021/01/31 12:46:32;;;;;;;1.50;1.38;;;;;;;;;;5015023;28;20466;-64
2021/01/31 12:48:58;;;;;;;3.07;1.90;;;;;;;;;;5014339;28;20185;-64
2021/01/31 12:51:26;;;;;;;1.93;1.87;;;;;;;;;;5014911;28;20453;-63
2021/01/31 12:53:52;;;;;;;1.52;1.42;;;;;;;;;;5015083;28;20820;-64
2021/01/31 12:56:18;;;;;;;3.00;1.80;;;;;;;;;;5014929;28;20204;-64
2021/01/31 12:58:44;;;;;;;1.00;1.00;;;;;;;;;;5014827;28;20171;-63
2021/01/31 13:01:10;;;;;;;1.33;1.23;;;;;;;;;;5014579;28;20180;-63
2021/01/31 13:03:36;;;;;;;3.30;3.00;;;;;;;;;;5014745;28;20413;-64
2021/01/31 13:06:02;;;;;;;5.38;1.95;;;;;;;;;;5014881;28;20553;-64
2021/01/31 13:08:28;;;;;;;0.60;0.60;;;;;;;;;;5013259;28;20643;-63
2021/01/31 13:10:54;;;;;;;0.80;0.80;;;;;;;;;;5014165;28;20182;-63
2021/01/31 13:13:20;;;;;;;1.90;1.80;;;;;;;;;;5014188;28;20437;-63
2021/01/31 13:15:46;;;;;;;2.50;2.30;;;;;;;;;;5015263;28;20440;-64
2021/01/31 13:18:12;;;;;;;1.75;1.65;;;;;;;;;;5014707;28;20758;-64
2021/01/31 13:20:38;;;;;;;0.80;0.80;;;;;;;;;;5014790;28;20278;-65
2021/01/31 13:23:04;;;;;;;3.17;2.97;;;;;;;;;;5014647;28;20715;-64
2021/01/31 13:25:31;;;;;;;0.82;0.82;;;;;;;;;;5014360;28;21017;-64
2021/01/31 13:28:00;;;;;;;1.63;1.58;;;;;;;;;;5014241;28;20206;-65
2021/01/31 13:30:26;;;;;;;2.30;2.08;;;;;;;;;;5014110;28;20195;-64
2021/01/31 13:32:52;;;;;;;1.43;1.33;;;;;;;;;;5014057;28;20261;-64
2021/01/31 13:35:19;;;;;;;1.45;1.25;;;;;;;;;;5015350;28;20446;-64
2021/01/31 13:37:45;;;;;;;1.15;1.15;;;;;;;;;;5014316;28;20191;-65
2021/01/31 13:40:12;;;;;;;1.88;1.77;;;;;;;;;;5014594;28;20259;-65
2021/01/31 13:42:38;;;;;;;1.77;1.77;;;;;;;;;;5013733;28;20180;-64
2021/01/31 13:45:06;;;;;;;1.70;1.63;;;;;;;;;;5014117;28;20199;-64
2021/01/31 13:47:32;;;;;;;1.40;1.40;;;;;;;;;;5014278;28;20208;-64
2021/01/31 13:49:58;;;;;;;2.65;1.73;;;;;;;;;;5014307;28;20184;-64
2021/01/31 13:52:24;;;;;;;1.13;1.13;;;;;;;;;;5014408;28;20265;-65
2021/01/31 13:54:50;;;;;;;0.82;0.82;;;;;;;;;;5014114;28;20206;-64
2021/01/31 13:57:19;;;;;;;0.90;0.90;;;;;;;;;;5014052;28;20175;-65
2021/01/31 13:59:46;;;;;;;10.27;2.15;;;;;;;;;;5014174;28;20173;-66
2021/01/31 14:02:12;;;;;;;1.55;1.45;;;;;;;;;;5013838;28;20182;-65
2021/01/31 14:04:38;;;;;;;0.95;0.95;;;;;;;;;;5014291;28;20193;-65
2021/01/31 14:07:04;;;;;;;1.42;1.42;;;;;;;;;;5014227;28;20295;-65
2021/01/31 14:09:30;;;;;;;1.33;1.33;;;;;;;;;;5014327;28;20206;-65
2021/01/31 14:11:56;;;;;;;1.13;1.13;;;;;;;;;;5014488;28;20462;-65
2021/01/31 14:14:22;;;;;;;2.70;2.27;;;;;;;;;;5014429;28;20167;-65
2021/01/31 14:16:48;;;;;;;2.70;2.50;;;;;;;;;;5013963;28;20428;-64
2021/01/31 14:19:14;;;;;;;2.03;1.92;;;;;;;;;;5013681;28;20469;-64
2021/01/31 14:21:40;;;;;;;3.90;2.07;;;;;;;;;;5014142;28;20183;-64
2021/01/31 14:24:07;;;;;;;2.25;1.92;;;;;;;;;;5012816;28;20463;-64
2021/01/31 14:26:33;;;;;;;3.22;1.88;;;;;;;;;;5013583;28;20214;-64
2021/01/31 14:29:00;;;;;;;2.47;2.33;;;;;;;;;;5013683;28;20214;-64
2021/01/31 14:31:28;;;;;;;2.65;2.45;;;;;;;;;;5013767;28;20210;-65
2021/01/31 14:33:54;;;;;;;2.28;1.48;;;;;;;;;;5013486;28;20234;-64
2021/01/31 14:36:20;;;;;;;3.15;2.88;;;;;;;;;;5013523;28;20219;-64
2021/01/31 14:38:46;;;;;;;1.80;1.70;;;;;;;;;;5013217;28;20180;-64
2021/01/31 14:41:12;;;;;;;2.00;1.90;;;;;;;;;;5013212;28;20180;-64
2021/01/31 14:43:38;;;;;;;0.77;0.77;;;;;;;;;;5013545;28;20171;-65
2021/01/31 14:46:05;;;;;;;3.13;2.60;;;;;;;;;;5013508;28;20212;-65
2021/01/31 14:48:31;;;;;;;1.50;1.40;;;;;;;;;;5013701;28;20903;-65
2021/01/31 14:50:57;;;;;;;2.40;2.20;;;;;;;;;;5012522;28;20310;-64
2021/01/31 14:53:23;;;;;;;1.83;1.73;;;;;;;;;;5013323;28;20181;-64